createdAt,value
2019-05-10T00:00:45.660Z,10.13
2019-05-10T00:03:32.355Z,10.06
2019-05-10T00:06:28.669Z,10.02
2019-05-10T00:08:56.999Z,10.07
2019-05-10T00:11:48.790Z,9.99
2019-05-10T00:14:30.606Z,10.05
2019-05-10T00:17:08.722Z,9.91
2019-05-10T00:19:37.594Z,9.95
2019-05-10T00:22:06.613Z,9.94
2019-05-10T00:24:35.529Z,9.81
2019-05-10T00:27:04.570Z,9.72
2019-05-10T00:29:33.495Z,9.88
2019-05-10T00:32:02.429Z,9.55
2019-05-10T00:34:31.411Z,9.50
2019-05-10T00:37:00.365Z,9.38
2019-05-10T00:39:31.349Z,9.43
2019-05-10T00:42:05.902Z,9.42
2019-05-10T00:44:34.826Z,9.38
2019-05-10T00:47:03.821Z,9.42
2019-05-10T00:49:32.689Z,9.42
2019-05-10T00:52:01.680Z,9.26
2019-05-10T00:54:30.609Z,9.28
2019-05-10T00:56:59.574Z,9.18
2019-05-10T00:59:28.527Z,9.29
2019-05-10T01:01:57.496Z,9.25
2019-05-10T01:04:26.426Z,9.23
2019-05-10T01:06:56.511Z,9.06
2019-05-10T01:09:25.573Z,9.21
2019-05-10T01:11:56.316Z,8.95
2019-05-10T01:14:33.551Z,9.05
2019-05-10T01:17:02.607Z,8.91
2019-05-10T01:19:31.466Z,8.96
2019-05-10T01:22:00.399Z,8.68
2019-05-10T01:24:29.595Z,8.73
2019-05-10T01:26:58.495Z,8.65
2019-05-10T01:29:27.304Z,8.66
2019-05-10T01:31:56.264Z,8.63
2019-05-10T01:34:25.155Z,8.86
2019-05-10T01:36:54.085Z,8.72
2019-05-10T01:39:41.496Z,8.46
2019-05-10T01:42:11.096Z,8.48
2019-05-10T01:44:40.421Z,8.51
2019-05-10T01:47:09.460Z,8.42
2019-05-10T01:49:38.580Z,8.34
2019-05-10T01:52:07.537Z,8.25
2019-05-10T01:54:36.400Z,8.17
2019-05-10T01:57:05.385Z,8.18
2019-05-10T01:59:34.237Z,8.14
2019-05-10T02:02:03.150Z,8.19
2019-05-10T02:04:32.024Z,8.13
2019-05-10T02:07:00.862Z,8.00
2019-05-10T02:09:37.301Z,7.97
2019-05-10T02:12:06.649Z,8.12
2019-05-10T02:14:35.910Z,7.96
2019-05-10T02:17:05.120Z,8.12
2019-05-10T02:19:34.223Z,8.09
2019-05-10T02:22:03.291Z,8.03
2019-05-10T02:24:32.167Z,7.87
2019-05-10T02:27:01.113Z,7.99
2019-05-10T02:29:30.049Z,8.15
2019-05-10T02:31:59.043Z,8.07
2019-05-10T02:34:27.968Z,8.08
2019-05-10T02:36:56.833Z,8.26
2019-05-10T02:39:36.320Z,8.03
2019-05-10T02:42:01.179Z,8.07
2019-05-10T02:44:30.178Z,8.24
2019-05-10T02:46:59.216Z,8.14
2019-05-10T02:49:28.224Z,8.23
2019-05-10T02:51:57.036Z,8.25
2019-05-10T02:54:26.027Z,8.31
2019-05-10T02:56:55.707Z,8.20
2019-05-10T02:59:25.567Z,8.30
2019-05-10T03:01:56.908Z,8.29
2019-05-10T03:04:27.583Z,8.39
2019-05-10T03:07:09.177Z,8.32
2019-05-10T03:09:40.824Z,8.25
2019-05-10T03:12:25.838Z,8.36
2019-05-10T03:14:58.743Z,8.33
2019-05-10T03:17:28.705Z,8.45
2019-05-10T03:19:59.160Z,8.43
2019-05-10T03:22:28.101Z,8.44
2019-05-10T03:24:57.120Z,8.48
2019-05-10T03:27:26.377Z,8.53
2019-05-10T03:30:05.631Z,8.53
2019-05-10T03:32:34.646Z,8.58
2019-05-10T03:35:03.652Z,8.59
2019-05-10T03:37:32.622Z,8.60
2019-05-10T03:40:02.368Z,8.62
2019-05-10T03:42:31.677Z,8.65
2019-05-10T03:45:00.540Z,8.74
2019-05-10T03:47:29.473Z,8.74
2019-05-10T03:49:58.293Z,8.75
2019-05-10T03:52:27.362Z,8.70
2019-05-10T03:54:56.224Z,8.66
2019-05-10T03:57:25.165Z,8.80
2019-05-10T03:59:54.035Z,8.82
2019-05-10T04:02:22.898Z,8.87
2019-05-10T04:04:51.748Z,8.91
2019-05-10T04:07:20.612Z,8.94
2019-05-10T04:09:49.700Z,9.02
2019-05-10T04:12:18.633Z,9.11
2019-05-10T04:14:49.607Z,9.17
2019-05-10T04:17:18.404Z,9.18
2019-05-10T04:19:47.425Z,9.24
2019-05-10T04:22:16.451Z,9.33
2019-05-10T04:24:45.380Z,9.35
2019-05-10T04:27:30.518Z,9.39
2019-05-10T04:29:46.053Z,9.51
2019-05-10T04:32:14.982Z,9.54
2019-05-10T04:34:46.016Z,9.58
2019-05-10T04:37:14.896Z,9.65
2019-05-10T04:39:43.832Z,9.64
2019-05-10T04:42:12.726Z,9.74
2019-05-10T04:44:41.532Z,9.75
2019-05-10T04:47:10.421Z,9.74
2019-05-10T04:49:39.391Z,9.73
2019-05-10T04:52:08.281Z,9.76
2019-05-10T04:54:37.239Z,9.79
2019-05-10T04:57:06.215Z,9.79
2019-05-10T04:59:47.505Z,9.81
2019-05-10T05:02:22.109Z,9.89
2019-05-10T05:04:52.995Z,9.91
2019-05-10T05:07:36.203Z,9.92
2019-05-10T05:10:20.824Z,9.99
2019-05-10T05:12:53.038Z,10.00
2019-05-10T05:15:22.486Z,10.06
2019-05-10T05:17:55.578Z,10.05
2019-05-10T05:20:27.838Z,10.09
2019-05-10T05:23:11.302Z,10.10
2019-05-10T05:25:40.270Z,10.11
2019-05-10T05:28:10.631Z,10.11
2019-05-10T05:30:39.528Z,10.10
2019-05-10T05:33:08.355Z,10.13
2019-05-10T05:35:37.306Z,10.17
2019-05-10T05:38:06.144Z,10.22
2019-05-10T05:40:36.054Z,10.21
2019-05-10T05:43:08.081Z,10.27
2019-05-10T05:45:35.775Z,10.26
2019-05-10T05:48:39.461Z,10.26
2019-05-10T05:50:55.901Z,10.38
2019-05-10T05:53:24.713Z,10.35
2019-05-10T05:55:53.534Z,10.43
2019-05-10T05:58:27.056Z,10.58
2019-05-10T06:00:53.046Z,10.72
2019-05-10T06:03:27.452Z,10.87
2019-05-10T06:05:52.668Z,10.95
2019-05-10T06:08:25.155Z,11.17
2019-05-10T06:10:57.954Z,11.37
2019-05-10T06:13:30.143Z,11.85
2019-05-10T06:15:55.201Z,11.58
2019-05-10T06:18:24.035Z,11.35
2019-05-10T06:20:55.086Z,11.25
2019-05-10T06:23:29.280Z,11.26
2019-05-10T06:25:54.611Z,11.12
2019-05-10T06:28:28.715Z,11.26
2019-05-10T06:30:54.396Z,11.12
2019-05-10T06:33:23.204Z,11.16
2019-05-10T06:35:52.002Z,11.22
2019-05-10T06:38:20.918Z,11.11
2019-05-10T06:40:49.734Z,11.15
2019-05-10T06:43:18.593Z,11.18
2019-05-10T06:45:52.403Z,11.16
2019-05-10T06:48:26.796Z,11.09
2019-05-10T06:50:56.614Z,11.08
2019-05-10T06:53:25.653Z,10.99
2019-05-10T06:55:54.905Z,10.97
2019-05-10T06:58:24.634Z,10.97
2019-05-10T07:00:55.319Z,10.89
2019-05-10T07:03:24.468Z,10.96
2019-05-10T07:05:53.745Z,11.02
2019-05-10T07:08:22.633Z,10.89
2019-05-10T07:10:51.888Z,10.85
2019-05-10T07:13:21.066Z,10.89
2019-05-10T07:15:50.069Z,10.91
2019-05-10T07:18:22.814Z,10.74
2019-05-10T07:21:00.953Z,10.90
2019-05-10T07:23:30.235Z,10.83
2019-05-10T07:25:59.430Z,10.75
2019-05-10T07:28:28.429Z,10.65
2019-05-10T07:30:57.463Z,10.63
2019-05-10T07:33:26.688Z,10.69
2019-05-10T07:35:55.819Z,10.68
2019-05-10T07:38:30.711Z,10.56
2019-05-10T07:40:55.921Z,10.58
2019-05-10T07:43:35.007Z,10.71
2019-05-10T07:46:06.636Z,10.65
2019-05-10T07:48:35.394Z,10.69
2019-05-10T07:51:04.638Z,10.74
2019-05-10T07:53:38.309Z,10.72
2019-05-10T07:56:08.995Z,10.84
2019-05-10T07:58:42.818Z,10.86
2019-05-10T08:01:12.329Z,10.86
2019-05-10T08:03:48.078Z,10.77
2019-05-10T08:08:39.891Z,10.64
2019-05-10T08:11:08.867Z,10.69
2019-05-10T08:13:39.313Z,10.84
2019-05-10T08:16:11.929Z,10.88
2019-05-10T08:18:39.834Z,10.84
2019-05-10T08:21:20.457Z,10.89
2019-05-10T08:23:41.498Z,11.09
2019-05-10T08:26:20.328Z,11.18
2019-05-10T08:28:44.610Z,11.38
2019-05-10T08:31:12.581Z,11.47
2019-05-10T08:33:44.217Z,11.59
2019-05-10T08:36:12.229Z,11.78
2019-05-10T08:38:47.212Z,11.91
2019-05-10T08:41:16.500Z,11.73
2019-05-10T08:43:42.998Z,11.87
2019-05-10T08:46:12.251Z,11.64
2019-05-10T08:48:46.575Z,11.59
2019-05-10T08:51:12.621Z,11.68
2019-05-10T08:53:42.305Z,11.49
2019-05-10T08:56:13.676Z,11.59
2019-05-10T08:58:42.254Z,11.34
2019-05-10T09:01:23.894Z,11.43
2019-05-10T09:03:42.150Z,11.36
2019-05-10T09:06:16.491Z,11.43
2019-05-10T09:08:43.138Z,11.37
2019-05-10T09:11:12.107Z,11.26
2019-05-10T09:13:45.670Z,11.29
2019-05-10T09:16:13.672Z,11.29
2019-05-10T09:18:46.626Z,11.31
2019-05-10T09:21:14.325Z,11.36
2019-05-10T09:23:43.007Z,11.15
2019-05-10T09:26:16.565Z,11.10
2019-05-10T09:28:42.514Z,11.06
2019-05-10T09:31:18.910Z,11.08
2019-05-10T09:33:49.322Z,11.07
2019-05-10T09:36:12.633Z,10.79
2019-05-10T09:38:43.439Z,10.66
2019-05-10T09:41:12.037Z,10.62
2019-05-10T09:43:48.451Z,10.33
2019-05-10T09:46:14.039Z,10.34
2019-05-10T09:48:44.761Z,10.28
2019-05-10T09:51:13.883Z,10.30
2019-05-10T09:53:42.993Z,10.21
2019-05-10T09:56:11.941Z,10.21
2019-05-10T09:58:40.767Z,10.25
2019-05-10T10:01:17.781Z,10.38
2019-05-10T10:03:43.627Z,10.37
2019-05-10T10:06:11.445Z,10.33
2019-05-10T10:08:43.523Z,10.34
2019-05-10T10:11:15.742Z,10.38
2019-05-10T10:13:43.988Z,10.26
2019-05-10T10:16:14.699Z,10.58
2019-05-10T10:18:42.761Z,10.75
2019-05-10T10:21:13.189Z,10.74
2019-05-10T10:23:42.234Z,10.81
2019-05-10T10:26:12.543Z,10.77
2019-05-10T10:28:41.689Z,10.77
2019-05-10T10:31:25.086Z,10.66
2019-05-10T10:33:43.071Z,10.61
2019-05-10T10:36:11.755Z,10.77
2019-05-10T10:38:45.471Z,11.11
2019-05-10T10:41:11.625Z,11.19
2019-05-10T10:43:40.427Z,11.18
2019-05-10T10:46:12.467Z,11.09
2019-05-10T10:48:43.528Z,11.08
2019-05-10T10:51:10.603Z,11.11
2019-05-10T10:53:39.468Z,11.08
2019-05-10T10:56:08.216Z,10.92
2019-05-10T10:58:37.112Z,11.01
2019-05-10T11:01:10.643Z,10.93
2019-05-10T11:03:40.968Z,10.88
2019-05-10T11:06:09.835Z,10.81
2019-05-10T11:12:06.188Z,11.13
2019-05-10T11:14:39.991Z,11.06
2019-05-10T11:17:05.645Z,11.09
2019-05-10T11:19:34.455Z,11.06
2019-05-10T11:22:09.679Z,10.63
2019-05-10T11:24:33.860Z,10.83
2019-05-10T11:27:17.111Z,10.84
2019-05-10T11:29:43.995Z,10.70
2019-05-10T11:32:16.698Z,10.66
2019-05-10T11:34:44.145Z,10.53
2019-05-10T11:37:16.183Z,10.69
2019-05-10T11:39:46.815Z,10.47
2019-05-10T11:42:15.583Z,10.77
2019-05-10T11:44:49.959Z,10.85
2019-05-10T11:47:25.286Z,10.99
2019-05-10T11:49:45.613Z,11.01
2019-05-10T11:52:14.430Z,11.20
2019-05-10T11:54:43.480Z,11.32
2019-05-10T11:57:13.739Z,11.22
2019-05-10T11:59:42.821Z,11.10
2019-05-10T12:02:32.700Z,10.88
2019-05-10T12:04:43.486Z,10.85
2019-05-10T12:07:13.011Z,10.74
2019-05-10T12:09:42.721Z,10.83
2019-05-10T12:12:12.487Z,10.74
2019-05-10T12:14:43.754Z,10.70
2019-05-10T12:17:24.961Z,10.62
2019-05-10T12:19:56.223Z,10.70
2019-05-10T12:22:32.058Z,10.53
2019-05-10T12:25:20.573Z,10.62
2019-05-10T12:27:30.092Z,10.72
2019-05-10T12:29:59.985Z,10.80
2019-05-10T12:32:27.113Z,10.70
2019-05-10T12:34:57.310Z,10.65
2019-05-10T12:37:26.323Z,10.80
2019-05-10T12:39:55.344Z,10.99
2019-05-10T12:42:24.153Z,11.10
2019-05-10T12:44:55.847Z,10.97
2019-05-10T12:47:24.658Z,11.00
2019-05-10T12:50:01.778Z,11.31
2019-05-10T12:52:28.653Z,11.31
2019-05-10T12:54:55.570Z,11.63
2019-05-10T12:57:27.796Z,11.79
2019-05-10T13:00:12.275Z,11.82
2019-05-10T13:02:51.457Z,11.81
2019-05-10T13:05:30.695Z,11.96
2019-05-10T13:07:58.068Z,11.92
2019-05-10T13:10:53.076Z,11.56
2019-05-10T13:13:31.757Z,11.21
2019-05-10T13:16:09.538Z,10.95
2019-05-10T13:18:52.928Z,11.04
2019-05-10T13:21:19.507Z,10.87
2019-05-10T13:23:53.309Z,10.93
2019-05-10T13:26:25.564Z,10.82
2019-05-10T13:29:08.171Z,11.01
2019-05-10T13:31:42.138Z,11.00
2019-05-10T13:34:34.597Z,11.36
2019-05-10T13:37:06.690Z,11.58
2019-05-10T13:39:39.423Z,11.36
2019-05-10T13:42:12.346Z,11.55
2019-05-10T13:44:43.062Z,11.53
2019-05-10T13:47:13.204Z,11.42
2019-05-10T13:49:42.200Z,11.23
2019-05-10T13:52:18.194Z,11.49
2019-05-10T13:54:47.325Z,11.53
2019-05-10T13:57:16.696Z,11.86
2019-05-10T13:59:48.893Z,12.14
2019-05-10T14:05:30.304Z,11.90
2019-05-10T14:07:59.145Z,12.01
2019-05-10T14:10:28.141Z,12.03
2019-05-10T14:13:02.713Z,12.20
2019-05-10T14:15:27.788Z,12.13
2019-05-10T14:17:56.827Z,12.07
2019-05-10T14:20:27.666Z,12.56
2019-05-10T14:22:58.713Z,12.52
2019-05-10T14:25:29.647Z,12.37
2019-05-10T14:27:57.905Z,12.30
2019-05-10T14:30:27.113Z,12.90
2019-05-10T14:32:56.135Z,13.68
2019-05-10T14:35:28.027Z,13.24
2019-05-10T14:38:07.591Z,12.27
2019-05-10T14:40:30.464Z,12.24
2019-05-10T14:42:58.272Z,11.96
2019-05-10T14:45:27.116Z,12.47
2019-05-10T14:47:56.081Z,12.64
2019-05-10T14:50:28.048Z,12.86
2019-05-10T14:52:55.734Z,12.59
2019-05-10T14:55:27.874Z,12.57
2019-05-10T14:57:55.276Z,12.72
2019-05-10T15:00:24.287Z,13.09
2019-05-10T15:02:56.648Z,12.95
2019-05-10T15:05:23.777Z,12.77
2019-05-10T15:11:33.268Z,12.88
2019-05-10T15:14:02.376Z,13.39
2019-05-10T15:16:31.532Z,13.20
2019-05-10T15:19:00.420Z,13.15
2019-05-10T15:21:34.541Z,13.15
2019-05-10T15:24:03.096Z,14.61
2019-05-10T15:26:37.660Z,15.51
2019-05-10T15:29:02.807Z,15.51
2019-05-10T15:31:31.871Z,14.32
2019-05-10T15:34:04.985Z,14.86
2019-05-10T15:43:04.550Z,16.80
2019-05-10T15:49:06.058Z,18.18
2019-05-10T15:51:36.541Z,19.08
2019-05-10T15:54:07.497Z,18.90
2019-05-10T15:59:07.423Z,12.97
2019-05-10T15:59:23.581Z,15.60
2019-05-10T16:01:36.532Z,13.66
2019-05-10T16:04:05.605Z,12.81
2019-05-10T16:06:37.739Z,13.64
2019-05-10T16:09:16.936Z,18.12
2019-05-10T16:25:48.623Z,13.14
2019-05-10T16:28:20.702Z,12.78
2019-05-10T16:30:54.112Z,12.08
2019-05-10T16:33:25.861Z,12.50
2019-05-10T16:35:55.531Z,12.78
2019-05-10T16:38:25.498Z,12.94
2019-05-10T16:41:00.605Z,12.87
2019-05-10T16:44:01.200Z,12.74
2019-05-10T16:46:38.159Z,12.60
2019-05-10T16:49:10.161Z,12.61
2019-05-10T16:51:42.370Z,12.75
2019-05-10T16:54:33.759Z,12.74
2019-05-10T17:04:00.387Z,12.61
2019-05-10T17:06:28.857Z,12.61
2019-05-10T17:08:58.029Z,12.39
2019-05-10T17:11:26.822Z,12.28
2019-05-10T17:13:55.900Z,12.08
2019-05-10T17:16:24.976Z,12.02
2019-05-10T17:18:55.319Z,12.16
2019-05-10T17:21:24.859Z,11.94
2019-05-10T17:23:53.900Z,11.89
2019-05-10T17:26:34.811Z,12.08
2019-05-10T17:29:07.334Z,12.08
2019-05-10T17:31:39.518Z,11.99
2019-05-10T17:34:05.314Z,11.74
2019-05-10T17:36:34.441Z,11.83
2019-05-10T17:39:04.341Z,11.51
2019-05-10T17:41:41.043Z,11.66
2019-05-10T17:44:11.177Z,11.58
2019-05-10T17:46:40.267Z,11.53
2019-05-10T17:49:09.341Z,11.34
2019-05-10T17:51:38.604Z,11.16
2019-05-10T17:54:07.695Z,11.37
2019-05-10T17:56:38.992Z,11.13
2019-05-10T17:59:12.130Z,11.08
2019-05-10T18:01:40.362Z,11.15
2019-05-10T18:04:09.697Z,11.03
2019-05-10T18:06:38.747Z,10.87
2019-05-10T18:09:07.848Z,10.78
2019-05-10T18:11:42.857Z,10.89
2019-05-10T18:14:12.591Z,10.83
2019-05-10T18:16:41.930Z,10.66
2019-05-10T18:19:10.207Z,10.44
2019-05-10T18:21:39.086Z,10.59
2019-05-10T18:24:07.895Z,10.42
2019-05-10T18:26:39.674Z,10.25
2019-05-10T18:29:07.406Z,10.27
2019-05-10T18:31:36.248Z,9.97
2019-05-10T18:34:05.135Z,9.97
2019-05-10T18:36:51.276Z,9.92
2019-05-10T18:39:09.160Z,9.92
2019-05-10T18:41:41.463Z,9.84
2019-05-10T18:44:08.787Z,9.75
2019-05-10T18:46:39.380Z,9.57
2019-05-10T18:49:08.420Z,9.25
2019-05-10T18:51:37.281Z,9.18
2019-05-10T18:54:06.174Z,9.13
2019-05-10T18:56:35.150Z,9.10
2019-05-10T18:59:07.503Z,8.82
2019-05-10T19:01:38.652Z,8.71
2019-05-10T19:04:14.217Z,8.75
2019-05-10T19:06:44.012Z,8.76
2019-05-10T19:09:09.700Z,8.60
2019-05-10T19:11:40.533Z,8.59
2019-05-10T19:14:09.239Z,8.35
2019-05-10T19:16:38.003Z,8.65
2019-05-10T19:19:07.979Z,8.35
2019-05-10T19:21:37.973Z,8.22
2019-05-10T19:24:07.330Z,8.27
2019-05-10T19:26:36.360Z,8.02
2019-05-10T19:29:06.819Z,8.05
2019-05-10T19:31:37.890Z,8.05
2019-05-10T19:34:09.085Z,7.85
2019-05-10T19:36:37.507Z,7.77
2019-05-10T19:39:07.794Z,7.66
2019-05-10T19:41:37.228Z,7.75
2019-05-10T19:44:06.134Z,7.66
2019-05-10T19:46:39.031Z,7.39
2019-05-10T19:49:07.512Z,7.48
2019-05-10T19:51:36.405Z,7.41
2019-05-10T19:54:05.462Z,7.35
2019-05-10T19:56:36.543Z,7.36
2019-05-10T19:59:10.916Z,7.39
2019-05-10T20:01:35.539Z,7.27
2019-05-10T20:04:04.534Z,7.02
2019-05-10T20:06:33.326Z,7.15
2019-05-10T20:09:02.147Z,7.20
2019-05-10T20:11:31.138Z,7.12
2019-05-10T20:14:00.228Z,7.17
2019-05-10T20:16:29.129Z,6.90
2019-05-10T20:18:57.948Z,6.97
2019-05-10T20:21:40.751Z,6.86
2019-05-10T20:24:11.031Z,7.06
2019-05-10T20:26:40.393Z,6.66
2019-05-10T20:29:11.655Z,6.38
2019-05-10T20:35:08.298Z,6.32
2019-05-10T20:37:37.335Z,6.37
2019-05-10T20:40:06.542Z,6.38
2019-05-10T20:42:35.367Z,6.43
2019-05-10T20:45:08.152Z,6.30
2019-05-10T20:47:35.184Z,6.25
2019-05-10T20:50:04.790Z,6.32
2019-05-10T20:52:33.819Z,6.18
2019-05-10T20:55:39.781Z,6.07
2019-05-10T20:58:08.640Z,5.96
2019-05-10T21:00:37.405Z,5.66
2019-05-10T21:03:06.262Z,5.77
2019-05-10T21:05:35.244Z,5.87
2019-05-10T21:08:16.153Z,5.81
2019-05-10T21:10:34.665Z,5.55
2019-05-10T21:13:03.561Z,5.49
2019-05-10T21:15:33.628Z,5.44
2019-05-10T21:18:02.486Z,5.39
2019-05-10T21:20:31.372Z,5.44
2019-05-10T21:23:00.220Z,5.46
2019-05-10T21:25:29.117Z,5.42
2019-05-10T21:27:58.044Z,5.29
2019-05-10T21:30:27.031Z,5.16
2019-05-10T21:32:56.962Z,5.34
2019-05-10T21:35:25.793Z,5.43
2019-05-10T21:37:54.634Z,5.25
2019-05-10T21:40:23.556Z,5.13
2019-05-10T21:42:58.169Z,5.13
2019-05-10T21:45:33.978Z,4.94
2019-05-10T21:47:59.284Z,5.01
2019-05-10T21:50:28.189Z,4.97
2019-05-10T21:52:57.039Z,5.11
2019-05-10T21:55:25.991Z,4.95
2019-05-10T21:57:56.356Z,4.90
2019-05-10T22:00:28.600Z,4.80
2019-05-10T22:02:57.580Z,4.70
2019-05-10T22:05:26.638Z,4.73
2019-05-10T22:07:55.641Z,4.80
2019-05-10T22:10:24.562Z,4.97
2019-05-10T22:12:54.811Z,4.95
2019-05-10T22:15:25.279Z,5.05
2019-05-10T22:17:54.406Z,4.95
2019-05-10T22:20:23.402Z,4.53
2019-05-10T22:22:52.215Z,4.58
2019-05-10T22:25:22.231Z,4.48
2019-05-10T22:27:51.626Z,4.49
2019-05-10T22:30:20.768Z,4.46
2019-05-10T22:32:49.782Z,4.54
2019-05-10T22:35:18.911Z,4.21
2019-05-10T22:37:48.163Z,4.31
2019-05-10T22:40:17.171Z,4.26
2019-05-10T22:42:46.166Z,4.20
2019-05-10T22:45:15.333Z,4.14
2019-05-10T22:47:44.130Z,4.15
2019-05-10T22:50:13.242Z,4.31
2019-05-10T22:52:42.309Z,4.26
2019-05-10T22:55:11.679Z,4.12
2019-05-10T22:57:40.644Z,4.09
2019-05-10T23:00:10.494Z,4.01
2019-05-10T23:02:39.541Z,4.00
2019-05-10T23:05:08.598Z,4.14
2019-05-10T23:07:37.461Z,4.06
2019-05-10T23:10:07.027Z,4.20
2019-05-10T23:12:35.969Z,4.06
2019-05-10T23:15:05.465Z,3.81
2019-05-10T23:17:40.089Z,3.85
2019-05-10T23:20:09.105Z,3.95
2019-05-10T23:22:38.014Z,3.93
2019-05-10T23:25:07.242Z,3.83
2019-05-10T23:27:36.146Z,3.63
2019-05-10T23:30:06.237Z,3.77
2019-05-10T23:32:35.204Z,3.66
2019-05-10T23:35:04.315Z,3.90
2019-05-10T23:37:33.232Z,3.73
2019-05-10T23:40:04.426Z,3.78
2019-05-10T23:42:33.430Z,3.85
2019-05-10T23:45:02.324Z,3.71
2019-05-10T23:47:31.292Z,3.76
2019-05-10T23:50:00.171Z,3.71
2019-05-10T23:52:29.166Z,3.60
2019-05-10T23:54:57.964Z,3.52
2019-05-10T23:57:26.838Z,3.50
2019-05-10T23:59:55.924Z,3.34
